createdAt,value
2019-04-20T00:01:30.267Z,99.90
2019-04-20T00:03:55.316Z,99.90
2019-04-20T00:06:25.023Z,99.90
2019-04-20T00:09:01.829Z,99.90
2019-04-20T00:11:31.176Z,99.90
2019-04-20T00:14:04.119Z,99.90
2019-04-20T00:16:25.608Z,99.90
2019-04-20T00:18:59.064Z,99.90
2019-04-20T00:21:52.266Z,99.90
2019-04-20T00:24:33.602Z,99.90
2019-04-20T00:27:25.962Z,99.90
2019-04-20T00:29:54.774Z,99.90
2019-04-20T00:32:17.376Z,99.90
2019-04-20T00:34:45.402Z,99.90
2019-04-20T00:37:12.896Z,99.90
2019-04-20T00:39:50.809Z,99.90
2019-04-20T00:42:30.298Z,99.90
2019-04-20T00:45:03.071Z,99.90
2019-04-20T00:47:38.434Z,99.90
2019-04-20T00:50:19.609Z,99.90
2019-04-20T00:52:48.075Z,99.90
2019-04-20T00:55:04.227Z,99.90
2019-04-20T00:57:46.373Z,99.90
2019-04-20T01:00:27.375Z,99.90
2019-04-20T01:02:50.549Z,99.90
2019-04-20T01:05:27.925Z,99.90
2019-04-20T01:07:52.963Z,99.90
2019-04-20T01:10:19.357Z,99.90
2019-04-20T01:13:01.184Z,99.90
2019-04-20T01:15:36.712Z,99.90
2019-04-20T01:17:55.703Z,99.90
2019-04-20T01:20:26.356Z,99.90
2019-04-20T01:23:01.868Z,99.90
2019-04-20T01:25:32.302Z,99.90
2019-04-20T01:28:14.983Z,99.90
2019-04-20T01:30:37.706Z,99.90
2019-04-20T01:33:16.054Z,99.90
2019-04-20T01:35:48.844Z,99.90
2019-04-20T01:38:25.087Z,99.90
2019-04-20T01:40:33.736Z,99.90
2019-04-20T01:43:03.770Z,99.90
2019-04-20T01:45:36.232Z,99.90
2019-04-20T01:48:06.928Z,99.90
2019-04-20T01:50:47.357Z,99.90
2019-04-20T01:53:16.487Z,99.90
2019-04-20T01:55:55.737Z,99.90
2019-04-20T01:58:35.348Z,99.90
2019-04-20T02:00:51.184Z,99.90
2019-04-20T02:03:38.510Z,99.90
2019-04-20T02:06:10.002Z,99.90
2019-04-20T02:08:37.846Z,99.90
2019-04-20T02:11:09.139Z,99.90
2019-04-20T02:13:49.838Z,99.90
2019-04-20T02:16:22.696Z,99.90
2019-04-20T02:19:06.533Z,99.90
2019-04-20T02:21:37.876Z,99.90
2019-04-20T02:23:59.367Z,99.90
2019-04-20T02:26:28.361Z,99.90
2019-04-20T02:29:23.622Z,99.90
2019-04-20T02:32:10.069Z,99.90
2019-04-20T02:34:39.661Z,99.90
2019-04-20T02:39:45.931Z,99.90
2019-04-20T02:42:20.315Z,99.90
2019-04-20T02:47:21.536Z,99.90
2019-04-20T02:52:28.689Z,99.90
2019-04-20T02:57:47.277Z,99.90
2019-04-20T03:02:21.913Z,99.90
2019-04-20T03:04:49.161Z,99.90
2019-04-20T03:07:28.052Z,99.90
2019-04-20T03:10:06.442Z,99.90
2019-04-20T03:12:39.034Z,99.90
2019-04-20T03:15:02.843Z,99.90
2019-04-20T03:17:49.371Z,99.90
2019-04-20T03:20:14.704Z,99.90
2019-04-20T03:23:15.328Z,99.90
2019-04-20T03:25:24.986Z,99.90
2019-04-20T03:28:01.312Z,99.90
2019-04-20T03:33:30.973Z,99.90
2019-04-20T03:35:53.611Z,99.90
2019-04-20T03:38:14.461Z,99.90
2019-04-20T03:40:37.568Z,99.90
2019-04-20T03:42:54.894Z,99.90
2019-04-20T03:45:35.014Z,99.90
2019-04-20T03:48:12.608Z,99.90
2019-04-20T03:50:54.665Z,99.90
2019-04-20T03:53:23.091Z,99.90
2019-04-20T03:55:50.171Z,99.90
2019-04-20T03:58:35.963Z,99.90
2019-04-20T04:01:12.691Z,99.90
2019-04-20T04:03:47.230Z,99.90
2019-04-20T04:06:07.680Z,99.90
2019-04-20T04:08:32.863Z,99.90
2019-04-20T04:11:16.309Z,99.90
2019-04-20T04:13:29.193Z,99.90
2019-04-20T04:16:03.272Z,99.90
2019-04-20T04:18:38.492Z,99.90
2019-04-20T04:21:10.063Z,99.90
2019-04-20T04:23:58.963Z,99.90
2019-04-20T04:26:32.321Z,99.90
2019-04-20T04:29:06.930Z,99.90
2019-04-20T04:31:33.885Z,99.90
2019-04-20T04:34:10.725Z,99.90
2019-04-20T04:36:44.503Z,99.90
2019-04-20T04:39:22.825Z,99.90
2019-04-20T04:42:10.207Z,99.90
2019-04-20T04:44:26.591Z,99.90
2019-04-20T04:46:54.675Z,99.90
2019-04-20T04:49:25.754Z,99.90
2019-04-20T04:51:55.286Z,99.90
2019-04-20T04:54:31.598Z,99.90
2019-04-20T04:56:54.604Z,99.90
2019-04-20T04:59:26.021Z,99.90
2019-04-20T05:02:02.168Z,99.90
2019-04-20T05:05:10.606Z,99.90
2019-04-20T05:07:38.835Z,99.90
2019-04-20T05:10:08.194Z,99.90
2019-04-20T05:12:38.517Z,99.90
2019-04-20T05:15:15.774Z,99.90
2019-04-20T05:17:57.939Z,99.90
2019-04-20T05:20:29.267Z,99.90
2019-04-20T05:23:11.539Z,99.90
2019-04-20T05:25:59.636Z,99.90
2019-04-20T05:28:30.629Z,99.90
2019-04-20T05:30:59.504Z,99.90
2019-04-20T05:33:58.488Z,99.90
2019-04-20T05:36:23.301Z,99.90
2019-04-20T05:38:54.448Z,99.90
2019-04-20T05:41:21.527Z,99.90
2019-04-20T05:44:02.107Z,99.90
2019-04-20T05:46:36.255Z,99.90
2019-04-20T05:49:13.491Z,99.90
2019-04-20T05:54:10.800Z,99.90
2019-04-20T05:56:47.767Z,99.90
2019-04-20T05:59:15.030Z,99.90
2019-04-20T06:01:55.849Z,99.90
2019-04-20T06:04:28.680Z,99.90
2019-04-20T06:06:55.341Z,99.90
2019-04-20T06:09:28.026Z,99.90
2019-04-20T06:12:07.598Z,99.90
2019-04-20T06:14:15.211Z,99.90
2019-04-20T06:17:02.907Z,98.90
2019-04-20T06:19:38.408Z,97.90
2019-04-20T06:22:10.276Z,96.40
2019-04-20T06:24:49.499Z,96.00
2019-04-20T06:27:24.971Z,95.10
2019-04-20T06:29:45.831Z,93.30
2019-04-20T06:32:29.528Z,92.90
2019-04-20T06:34:53.543Z,92.20
2019-04-20T06:37:29.585Z,92.10
2019-04-20T06:40:07.844Z,90.90
2019-04-20T06:42:29.020Z,90.80
2019-04-20T06:45:16.183Z,90.80
2019-04-20T06:47:39.438Z,90.20
2019-04-20T06:50:16.035Z,89.70
2019-04-20T06:52:36.930Z,89.70
2019-04-20T06:55:15.696Z,88.60
2019-04-20T06:57:55.029Z,85.70
2019-04-20T07:00:36.521Z,86.80
2019-04-20T07:02:59.300Z,86.10
2019-04-20T07:05:31.978Z,84.70
2019-04-20T07:08:28.513Z,84.90
2019-04-20T07:10:45.581Z,84.70
2019-04-20T07:13:07.223Z,85.40
2019-04-20T07:15:44.801Z,83.60
2019-04-20T07:18:33.570Z,83.50
2019-04-20T07:21:08.242Z,83.40
2019-04-20T07:23:59.098Z,82.40
2019-04-20T07:26:13.435Z,80.90
2019-04-20T07:28:47.538Z,81.30
2019-04-20T07:31:13.234Z,80.70
2019-04-20T07:33:46.998Z,79.20
2019-04-20T07:36:28.399Z,79.30
2019-04-20T07:38:53.904Z,79.70
2019-04-20T07:41:33.105Z,79.70
2019-04-20T07:44:04.424Z,78.00
2019-04-20T07:46:40.693Z,78.60
2019-04-20T07:49:05.860Z,77.30
2019-04-20T07:51:18.453Z,75.30
2019-04-20T07:54:13.347Z,76.20
2019-04-20T07:56:40.723Z,74.70
2019-04-20T07:58:50.907Z,74.20
2019-04-20T08:01:56.118Z,74.20
2019-04-20T08:04:17.129Z,75.30
2019-04-20T08:06:38.054Z,75.20
2019-04-20T08:09:17.249Z,74.50
2019-04-20T08:11:54.910Z,74.90
2019-04-20T08:14:24.116Z,75.20
2019-04-20T08:17:14.387Z,75.60
2019-04-20T08:19:30.401Z,74.40
2019-04-20T08:21:57.113Z,75.60
2019-04-20T08:24:29.983Z,74.30
2019-04-20T08:26:55.032Z,74.60
2019-04-20T08:29:46.171Z,74.60
2019-04-20T08:32:35.889Z,73.70
2019-04-20T08:35:22.747Z,70.70
2019-04-20T08:37:46.994Z,73.40
2019-04-20T08:40:19.466Z,71.30
2019-04-20T08:43:02.762Z,71.40
2019-04-20T08:45:37.121Z,71.30
2019-04-20T08:48:02.788Z,70.00
2019-04-20T08:50:35.604Z,70.00
2019-04-20T08:55:36.167Z,70.90
2019-04-20T08:57:46.960Z,71.20
2019-04-20T09:00:28.810Z,71.50
2019-04-20T09:02:55.598Z,70.80
2019-04-20T09:05:30.333Z,69.80
2019-04-20T09:08:02.600Z,69.30
2019-04-20T09:10:45.392Z,70.30
2019-04-20T09:13:08.363Z,68.90
2019-04-20T09:15:29.913Z,69.20
2019-04-20T09:18:13.496Z,69.10
2019-04-20T09:20:47.560Z,68.10
2019-04-20T09:23:30.044Z,66.60
2019-04-20T09:26:10.197Z,67.60
2019-04-20T09:28:32.289Z,67.50
2019-04-20T09:31:12.021Z,67.60
2019-04-20T09:34:04.583Z,67.60
2019-04-20T09:36:49.950Z,66.10
2019-04-20T09:39:21.428Z,66.20
2019-04-20T09:42:00.633Z,65.40
2019-04-20T09:44:31.522Z,68.10
2019-04-20T09:47:02.960Z,66.60
2019-04-20T09:49:42.478Z,65.50
2019-04-20T09:52:17.277Z,65.10
2019-04-20T09:54:55.135Z,65.90
2019-04-20T09:57:30.675Z,65.40
2019-04-20T10:00:01.718Z,64.80
2019-04-20T10:02:22.204Z,66.80
2019-04-20T10:04:51.488Z,64.70
2019-04-20T10:07:25.278Z,65.30
2019-04-20T10:09:52.105Z,62.40
2019-04-20T10:12:33.537Z,62.60
2019-04-20T10:15:17.746Z,61.30
2019-04-20T10:17:43.566Z,62.00
2019-04-20T10:20:25.264Z,60.80
2019-04-20T10:22:46.707Z,62.10
2019-04-20T10:25:18.333Z,59.10
2019-04-20T10:27:47.518Z,60.50
2019-04-20T10:30:18.540Z,59.90
2019-04-20T10:32:52.256Z,60.60
2019-04-20T10:35:21.065Z,59.60
2019-04-20T10:38:09.944Z,60.20
2019-04-20T10:40:51.202Z,60.80
2019-04-20T10:43:12.148Z,59.90
2019-04-20T10:45:41.929Z,60.90
2019-04-20T10:48:13.468Z,60.70
2019-04-20T10:50:47.275Z,59.50
2019-04-20T10:53:15.773Z,60.40
2019-04-20T10:55:57.751Z,60.30
2019-04-20T10:58:25.696Z,58.60
2019-04-20T11:00:59.658Z,56.80
2019-04-20T11:03:32.339Z,56.00
2019-04-20T11:06:02.933Z,57.30
2019-04-20T11:08:34.850Z,56.50
2019-04-20T11:11:12.896Z,58.20
2019-04-20T11:13:43.846Z,56.70
2019-04-20T11:16:12.603Z,53.40
2019-04-20T11:18:41.602Z,54.70
2019-04-20T11:21:11.403Z,55.70
2019-04-20T11:23:44.415Z,55.20
2019-04-20T11:26:16.226Z,55.70
2019-04-20T11:28:50.378Z,54.90
2019-04-20T11:31:21.991Z,55.90
2019-04-20T11:33:52.309Z,53.10
2019-04-20T11:36:21.296Z,54.40
2019-04-20T11:38:53.017Z,52.70
2019-04-20T11:41:27.693Z,52.80
2019-04-20T11:43:57.871Z,52.70
2019-04-20T11:46:42.811Z,52.70
2019-04-20T11:49:11.485Z,52.80
2019-04-20T11:51:41.746Z,54.00
2019-04-20T11:54:16.610Z,54.00
2019-04-20T11:56:51.341Z,53.50
2019-04-20T11:59:21.022Z,54.80
2019-04-20T12:02:07.807Z,54.70
2019-04-20T12:04:50.067Z,53.40
2019-04-20T12:07:19.236Z,52.90
2019-04-20T12:09:47.653Z,54.40
2019-04-20T12:12:28.977Z,56.80
2019-04-20T12:14:48.817Z,55.70
2019-04-20T12:17:17.720Z,54.60
2019-04-20T12:19:46.157Z,54.10
2019-04-20T12:22:15.936Z,53.30
2019-04-20T12:24:44.737Z,54.40
2019-04-20T12:27:14.536Z,53.60
2019-04-20T12:29:43.611Z,54.00
2019-04-20T12:32:12.762Z,51.90
2019-04-20T12:34:45.448Z,52.50
2019-04-20T12:37:17.214Z,53.90
2019-04-20T12:39:46.956Z,53.60
2019-04-20T12:42:16.999Z,52.20
2019-04-20T12:44:48.009Z,50.90
2019-04-20T12:47:19.986Z,52.20
2019-04-20T12:49:57.261Z,52.10
2019-04-20T12:52:26.350Z,52.10
2019-04-20T12:54:54.765Z,51.10
2019-04-20T12:57:34.446Z,51.80
2019-04-20T13:00:05.756Z,51.20
2019-04-20T13:02:41.129Z,51.50
2019-04-20T13:05:11.769Z,50.10
2019-04-20T13:07:47.855Z,49.70
2019-04-20T13:10:15.732Z,50.40
2019-04-20T13:13:00.506Z,48.10
2019-04-20T13:15:44.759Z,50.20
2019-04-20T13:18:33.053Z,49.90
2019-04-20T13:21:02.043Z,48.40
2019-04-20T13:23:37.541Z,49.60
2019-04-20T13:26:10.411Z,50.50
2019-04-20T13:28:39.119Z,51.30
2019-04-20T13:31:09.952Z,48.70
2019-04-20T13:33:41.310Z,48.10
2019-04-20T13:36:14.432Z,48.80
2019-04-20T13:38:44.091Z,49.60
2019-04-20T13:41:16.062Z,48.60
2019-04-20T13:43:46.405Z,47.90
2019-04-20T13:46:15.130Z,48.20
2019-04-20T13:48:53.594Z,47.00
2019-04-20T13:51:26.518Z,45.90
2019-04-20T13:53:55.292Z,45.60
2019-04-20T13:56:25.918Z,47.40
2019-04-20T13:58:59.528Z,47.40
2019-04-20T14:01:30.657Z,45.60
2019-04-20T14:04:08.221Z,45.80
2019-04-20T14:06:37.538Z,47.20
2019-04-20T14:09:09.813Z,45.00
2019-04-20T14:11:43.334Z,46.30
2019-04-20T14:14:13.140Z,45.80
2019-04-20T14:16:45.450Z,43.90
2019-04-20T14:19:18.874Z,44.30
2019-04-20T14:21:48.187Z,43.50
2019-04-20T14:24:17.174Z,43.70
2019-04-20T14:26:46.302Z,43.50
2019-04-20T14:29:25.199Z,41.30
2019-04-20T14:32:00.137Z,41.50
2019-04-20T14:34:27.247Z,42.10
2019-04-20T14:36:57.018Z,42.80
2019-04-20T14:39:34.262Z,42.10
2019-04-20T14:42:07.216Z,42.20
2019-04-20T14:44:34.027Z,42.10
2019-04-20T14:47:03.657Z,41.70
2019-04-20T14:49:32.708Z,42.20
2019-04-20T14:52:04.530Z,42.10
2019-04-20T14:54:35.116Z,41.60
2019-04-20T14:57:05.433Z,40.50
2019-04-20T14:59:36.159Z,40.00
2019-04-20T15:02:08.457Z,40.00
2019-04-20T15:04:41.263Z,39.40
2019-04-20T15:07:10.818Z,39.00
2019-04-20T15:09:42.951Z,38.40
2019-04-20T15:12:12.941Z,38.10
2019-04-20T15:14:47.405Z,39.90
2019-04-20T15:17:17.430Z,39.60
2019-04-20T15:19:47.638Z,39.80
2019-04-20T15:22:31.547Z,39.70
2019-04-20T15:25:00.310Z,38.90
2019-04-20T15:27:28.718Z,40.90
2019-04-20T15:30:06.606Z,40.60
2019-04-20T15:32:36.832Z,40.20
2019-04-20T15:35:13.153Z,40.10
2019-04-20T15:37:43.336Z,39.70
2019-04-20T15:40:13.059Z,39.60
2019-04-20T15:42:54.842Z,40.50
2019-04-20T15:45:19.058Z,40.40
2019-04-20T15:47:50.220Z,39.00
2019-04-20T15:50:22.183Z,41.10
2019-04-20T15:52:57.354Z,42.10
2019-04-20T15:55:31.003Z,40.80
2019-04-20T15:57:57.510Z,40.50
2019-04-20T16:00:34.145Z,41.20
2019-04-20T16:03:17.222Z,41.50
2019-04-20T16:05:47.529Z,41.50
2019-04-20T16:08:21.419Z,41.80
2019-04-20T16:10:53.092Z,40.50
2019-04-20T16:13:36.031Z,40.10
2019-04-20T16:16:07.895Z,40.60
2019-04-20T16:18:39.164Z,41.60
2019-04-20T16:21:17.872Z,41.50
2019-04-20T16:23:43.536Z,42.10
2019-04-20T16:26:19.821Z,41.50
2019-04-20T16:28:49.671Z,41.70
2019-04-20T16:31:18.482Z,42.30
2019-04-20T16:33:50.329Z,42.50
2019-04-20T16:36:22.868Z,43.50
2019-04-20T16:38:53.644Z,44.30
2019-04-20T16:41:26.411Z,41.90
2019-04-20T16:43:55.504Z,42.00
2019-04-20T16:46:25.688Z,41.10
2019-04-20T16:48:57.045Z,42.20
2019-04-20T16:51:31.146Z,41.50
2019-04-20T16:53:59.659Z,41.70
2019-04-20T16:56:32.795Z,42.10
2019-04-20T16:59:11.330Z,42.30
2019-04-20T17:01:44.505Z,44.10
2019-04-20T17:04:17.171Z,45.40
2019-04-20T17:07:00.923Z,47.40
2019-04-20T17:09:37.951Z,48.70
2019-04-20T17:12:08.203Z,49.10
2019-04-20T17:14:40.765Z,49.70
2019-04-20T17:17:09.952Z,50.50
2019-04-20T17:19:44.155Z,50.40
2019-04-20T17:22:19.246Z,50.10
2019-04-20T17:24:51.626Z,50.50
2019-04-20T17:27:39.069Z,50.20
2019-04-20T17:30:13.286Z,50.70
2019-04-20T17:32:45.465Z,51.10
2019-04-20T17:35:34.091Z,51.10
2019-04-20T17:37:51.627Z,51.50
2019-04-20T17:40:46.131Z,51.30
2019-04-20T17:43:09.266Z,51.90
2019-04-20T17:45:44.576Z,52.10
2019-04-20T17:48:27.151Z,52.90
2019-04-20T17:51:06.577Z,53.60
2019-04-20T17:53:39.469Z,54.10
2019-04-20T17:56:07.351Z,55.10
2019-04-20T17:58:40.032Z,55.50
2019-04-20T18:01:23.053Z,56.20
2019-04-20T18:04:24.499Z,55.90
2019-04-20T18:06:45.326Z,56.10
2019-04-20T18:09:24.937Z,56.60
2019-04-20T18:11:40.641Z,56.40
2019-04-20T18:14:24.817Z,56.90
2019-04-20T18:16:52.419Z,57.20
2019-04-20T18:19:17.235Z,58.00
2019-04-20T18:21:43.536Z,58.30
2019-04-20T18:24:38.739Z,59.10
2019-04-20T18:27:08.336Z,59.70
2019-04-20T18:29:40.900Z,60.30
2019-04-20T18:31:53.598Z,60.90
2019-04-20T18:34:29.294Z,61.70
2019-04-20T18:37:05.794Z,62.10
2019-04-20T18:39:42.053Z,62.40
2019-04-20T18:42:14.247Z,63.40
2019-04-20T18:44:57.155Z,63.30
2019-04-20T18:47:29.093Z,63.90
2019-04-20T18:49:51.362Z,64.20
2019-04-20T18:52:09.451Z,65.20
2019-04-20T18:54:44.133Z,66.10
2019-04-20T18:57:20.441Z,66.20
2019-04-20T18:59:54.615Z,66.60
2019-04-20T19:02:29.334Z,67.20
2019-04-20T19:04:59.938Z,67.30
2019-04-20T19:07:28.001Z,67.20
2019-04-20T19:10:14.514Z,67.50
2019-04-20T19:12:49.600Z,67.90
2019-04-20T19:15:47.874Z,67.80
2019-04-20T19:18:11.793Z,68.10
2019-04-20T19:20:34.730Z,69.00
2019-04-20T19:23:08.491Z,68.90
2019-04-20T19:25:42.407Z,69.70
2019-04-20T19:28:14.458Z,69.80
2019-04-20T19:30:50.034Z,70.40
2019-04-20T19:33:27.596Z,70.60
2019-04-20T19:35:56.378Z,71.10
2019-04-20T19:38:23.880Z,71.80
2019-04-20T19:40:58.312Z,72.40
2019-04-20T19:43:30.514Z,73.10
2019-04-20T19:46:36.655Z,73.70
2019-04-20T19:48:39.680Z,74.60
2019-04-20T19:51:23.978Z,75.10
2019-04-20T19:53:57.287Z,75.00
2019-04-20T19:56:16.986Z,74.80
2019-04-20T19:58:53.346Z,74.60
2019-04-20T20:01:06.849Z,74.20
2019-04-20T20:03:41.923Z,74.40
2019-04-20T20:06:28.219Z,74.50
2019-04-20T20:08:56.190Z,74.90
2019-04-20T20:11:29.554Z,75.10
2019-04-20T20:13:59.790Z,75.20
2019-04-20T20:16:50.693Z,75.60
2019-04-20T20:19:08.459Z,76.10
2019-04-20T20:21:46.778Z,76.00
2019-04-20T20:24:06.108Z,76.30
2019-04-20T20:26:44.904Z,76.40
2019-04-20T20:29:19.707Z,76.50
2019-04-20T20:31:55.594Z,76.20
2019-04-20T20:34:18.440Z,76.60
2019-04-20T20:36:53.993Z,76.20
2019-04-20T20:39:21.306Z,76.10
2019-04-20T20:42:00.561Z,75.90
2019-04-20T20:44:27.630Z,75.60
2019-04-20T20:46:59.739Z,75.60
2019-04-20T20:49:47.062Z,75.70
2019-04-20T20:52:18.464Z,75.90
2019-04-20T20:54:46.026Z,75.90
2019-04-20T20:57:11.774Z,75.90
2019-04-20T20:59:48.040Z,76.00
2019-04-20T21:02:15.811Z,76.10
2019-04-20T21:04:43.871Z,76.00
2019-04-20T21:07:16.331Z,76.60
2019-04-20T21:09:46.096Z,77.00
2019-04-20T21:12:21.293Z,77.30
2019-04-20T21:14:51.354Z,77.70
2019-04-20T21:17:23.712Z,77.70
2019-04-20T21:20:06.351Z,78.10
2019-04-20T21:22:47.619Z,78.60
2019-04-20T21:25:15.242Z,79.40
2019-04-20T21:27:48.722Z,80.00
2019-04-20T21:30:31.034Z,79.60
2019-04-20T21:32:54.334Z,79.90
2019-04-20T21:35:30.461Z,80.40
2019-04-20T21:38:03.967Z,80.60
2019-04-20T21:40:33.930Z,81.20
2019-04-20T21:43:02.370Z,81.60
2019-04-20T21:45:33.586Z,82.10
2019-04-20T21:48:03.454Z,82.40
2019-04-20T21:50:57.666Z,82.90
2019-04-20T21:53:15.595Z,83.40
2019-04-20T21:55:36.206Z,84.10
2019-04-20T21:58:08.549Z,84.30
2019-04-20T22:01:03.851Z,84.60
2019-04-20T22:03:22.640Z,84.90
2019-04-20T22:06:16.248Z,85.00
2019-04-20T22:08:54.530Z,85.50
2019-04-20T22:11:19.965Z,85.60
2019-04-20T22:13:50.826Z,86.10
2019-04-20T22:16:21.945Z,86.30
2019-04-20T22:19:11.694Z,86.50
2019-04-20T22:21:48.372Z,87.10
2019-04-20T22:24:14.939Z,87.40
2019-04-20T22:26:50.290Z,87.50
2019-04-20T22:29:12.037Z,87.90
2019-04-20T22:31:56.774Z,88.30
2019-04-20T22:37:09.688Z,89.30
2019-04-20T22:39:45.063Z,89.80
2019-04-20T22:42:13.366Z,89.90
2019-04-20T22:44:41.517Z,90.10
2019-04-20T22:47:20.807Z,90.40
2019-04-20T22:50:03.545Z,90.50
2019-04-20T22:52:39.749Z,90.60
2019-04-20T22:55:14.010Z,90.70
2019-04-20T22:57:50.460Z,90.90
2019-04-20T23:00:04.749Z,91.10
2019-04-20T23:02:28.658Z,91.30
2019-04-20T23:05:00.740Z,91.50
2019-04-20T23:07:30.794Z,91.40
2019-04-20T23:10:03.279Z,91.50
2019-04-20T23:12:34.019Z,91.70
2019-04-20T23:15:04.789Z,91.80
2019-04-20T23:17:38.696Z,92.10
2019-04-20T23:20:14.659Z,92.40
2019-04-20T23:22:42.403Z,92.50
2019-04-20T23:25:09.086Z,92.50
2019-04-20T23:27:43.814Z,92.70
2019-04-20T23:30:23.705Z,92.70
2019-04-20T23:32:46.779Z,92.70
2019-04-20T23:35:21.560Z,92.60
2019-04-20T23:37:55.150Z,92.70
2019-04-20T23:40:23.655Z,92.70
2019-04-20T23:42:55.696Z,92.90
2019-04-20T23:45:40.507Z,93.00
2019-04-20T23:48:10.166Z,93.20
2019-04-20T23:50:54.366Z,93.30
2019-04-20T23:53:27.345Z,93.60
2019-04-20T23:55:39.435Z,94.30
2019-04-20T23:58:12.626Z,94.20
